Portada
METAR-TAF:

METAR-TAF

Aeropuertos :

Saint Louis, Senegal

latitud: 16-03N, longitud: 016-27W, altitud: 4 m

Observación

El informe se hizo hace 53 minutos, a las 03:00 UTC
Viento 6 kt del norte
Temperatura 26°C
Humedad 94%
Presión 1009 hPa
Visibilidad 10 km o más
Escasas nubes a una altura de 1000 ft

METAR: GOSS 240300Z 36006KT 9999 FEW010 26/25 Q1009

Hora: 03:53 (03:53 UTC)

Pronóstico

El informe se hizo hace 4 horas y 23 minutos, a las 23:30 UTC
Pronóstico válido del 24 a las 00 UTC al 24 a las 24 UTC
Viento 10 kt del norte-noroeste
Visibilidad 10 km o más
Nubes dispersas a una altura de 1300 ft

TAF: GOSS 232330Z 2400/2424 34010KT 9999 SCT013

Observaciones y pronósticos meteorológicos de más de 4000 aeropuertos (mensajes METAR y TAF).

Los puntos amarillos y rojos representan las estaciones disponibles.

Ponga el ratón en el punto deseado para ver el nombre de la estación.

Haga clic para ver las observaciones y los pronósticos meteorológicos.

Para cambiar el mapa : haga clic en los botones verdes con una cruz de color negro para hacer un zoom, en el botón verde con un guión para alejar o en las flechas verdes para mapas adyacentes.


METAR-TAF: